sensor_id;sensor_type;location;lat;lon;timestamp;P1;durP1;ratioP1;P2;durP2;ratioP2
43801;SDS011;29429;51.074;13.764;2023-02-28T00:01:27;9.23;;;4.80;;
43801;SDS011;29429;51.074;13.764;2023-02-28T00:03:55;8.18;;;3.88;;
43801;SDS011;29429;51.074;13.764;2023-02-28T00:06:22;7.50;;;4.78;;
43801;SDS011;29429;51.074;13.764;2023-02-28T00:08:50;8.40;;;3.80;;
43801;SDS011;29429;51.074;13.764;2023-02-28T00:11:17;6.20;;;4.28;;
43801;SDS011;29429;51.074;13.764;2023-02-28T00:13:45;6.78;;;4.07;;
43801;SDS011;29429;51.074;13.764;2023-02-28T00:16:14;8.38;;;3.97;;
43801;SDS011;29429;51.074;13.764;2023-02-28T00:18:45;8.88;;;4.68;;
43801;SDS011;29429;51.074;13.764;2023-02-28T00:21:14;6.90;;;3.55;;
43801;SDS011;29429;51.074;13.764;2023-02-28T00:23:42;7.20;;;4.30;;
43801;SDS011;29429;51.074;13.764;2023-02-28T00:26:10;7.70;;;4.20;;
43801;SDS011;29429;51.074;13.764;2023-02-28T00:28:38;7.78;;;4.05;;
43801;SDS011;29429;51.074;13.764;2023-02-28T00:31:05;9.38;;;4.55;;
43801;SDS011;29429;51.074;13.764;2023-02-28T00:33:34;10.35;;;4.68;;
43801;SDS011;29429;51.074;13.764;2023-02-28T00:36:01;6.63;;;4.20;;
43801;SDS011;29429;51.074;13.764;2023-02-28T00:38:35;7.85;;;4.53;;
43801;SDS011;29429;51.074;13.764;2023-02-28T00:41:03;7.05;;;4.03;;
43801;SDS011;29429;51.074;13.764;2023-02-28T00:43:34;7.50;;;4.45;;
43801;SDS011;29429;51.074;13.764;2023-02-28T00:46:05;7.55;;;3.83;;
43801;SDS011;29429;51.074;13.764;2023-02-28T00:48:33;10.57;;;4.55;;
43801;SDS011;29429;51.074;13.764;2023-02-28T00:51:02;8.43;;;3.97;;
43801;SDS011;29429;51.074;13.764;2023-02-28T00:53:30;9.95;;;4.78;;
43801;SDS011;29429;51.074;13.764;2023-02-28T00:55:58;8.40;;;4.18;;
43801;SDS011;29429;51.074;13.764;2023-02-28T00:58:26;5.75;;;4.03;;
43801;SDS011;29429;51.074;13.764;2023-02-28T01:00:53;8.45;;;4.78;;
43801;SDS011;29429;51.074;13.764;2023-02-28T01:03:20;10.18;;;5.00;;
43801;SDS011;29429;51.074;13.764;2023-02-28T01:05:48;7.25;;;4.30;;
43801;SDS011;29429;51.074;13.764;2023-02-28T01:08:16;9.32;;;4.28;;
43801;SDS011;29429;51.074;13.764;2023-02-28T01:10:43;9.13;;;4.50;;
43801;SDS011;29429;51.074;13.764;2023-02-28T01:13:10;9.50;;;4.32;;
43801;SDS011;29429;51.074;13.764;2023-02-28T01:15:39;8.13;;;4.13;;
43801;SDS011;29429;51.074;13.764;2023-02-28T01:18:15;9.50;;;4.53;;
43801;SDS011;29429;51.074;13.764;2023-02-28T01:20:42;8.75;;;4.60;;
43801;SDS011;29429;51.074;13.764;2023-02-28T01:23:09;9.88;;;4.50;;
43801;SDS011;29429;51.074;13.764;2023-02-28T01:25:36;7.32;;;4.18;;
43801;SDS011;29429;51.074;13.764;2023-02-28T01:28:04;7.82;;;4.15;;
43801;SDS011;29429;51.074;13.764;2023-02-28T01:30:33;7.00;;;3.97;;
43801;SDS011;29429;51.074;13.764;2023-02-28T01:33:00;8.95;;;4.90;;
43801;SDS011;29429;51.074;13.764;2023-02-28T01:35:27;7.45;;;4.18;;
43801;SDS011;29429;51.074;13.764;2023-02-28T01:37:54;7.72;;;4.20;;
43801;SDS011;29429;51.074;13.764;2023-02-28T01:40:26;9.15;;;4.70;;
43801;SDS011;29429;51.074;13.764;2023-02-28T01:42:54;9.00;;;4.82;;
43801;SDS011;29429;51.074;13.764;2023-02-28T01:45:39;8.10;;;4.63;;
43801;SDS011;29429;51.074;13.764;2023-02-28T01:48:07;7.72;;;4.47;;
43801;SDS011;29429;51.074;13.764;2023-02-28T01:50:36;12.60;;;5.07;;
43801;SDS011;29429;51.074;13.764;2023-02-28T01:53:10;8.85;;;4.50;;
43801;SDS011;29429;51.074;13.764;2023-02-28T01:55:45;9.45;;;4.57;;
43801;SDS011;29429;51.074;13.764;2023-02-28T01:58:16;9.95;;;5.43;;
43801;SDS011;29429;51.074;13.764;2023-02-28T02:00:43;10.10;;;5.20;;
43801;SDS011;29429;51.074;13.764;2023-02-28T02:03:11;8.20;;;4.80;;
43801;SDS011;29429;51.074;13.764;2023-02-28T02:05:45;11.57;;;5.25;;
43801;SDS011;29429;51.074;13.764;2023-02-28T02:08:18;7.90;;;4.55;;
43801;SDS011;29429;51.074;13.764;2023-02-28T02:10:58;10.63;;;5.40;;
43801;SDS011;29429;51.074;13.764;2023-02-28T02:13:37;8.90;;;4.75;;
43801;SDS011;29429;51.074;13.764;2023-02-28T02:27:08;10.77;;;4.97;;
43801;SDS011;29429;51.074;13.764;2023-02-28T02:35:56;8.70;;;4.25;;
43801;SDS011;29429;51.074;13.764;2023-02-28T02:39:04;7.13;;;4.38;;
43801;SDS011;29429;51.074;13.764;2023-02-28T02:41:45;9.77;;;4.90;;
43801;SDS011;29429;51.074;13.764;2023-02-28T02:44:23;8.75;;;4.78;;
43801;SDS011;29429;51.074;13.764;2023-02-28T02:46:58;11.90;;;4.97;;
43801;SDS011;29429;51.074;13.764;2023-02-28T02:49:36;7.88;;;4.43;;
43801;SDS011;29429;51.074;13.764;2023-02-28T02:52:09;8.07;;;4.95;;
43801;SDS011;29429;51.074;13.764;2023-02-28T02:54:41;7.25;;;4.63;;
43801;SDS011;29429;51.074;13.764;2023-02-28T02:57:32;8.90;;;5.00;;
43801;SDS011;29429;51.074;13.764;2023-02-28T03:00:06;8.23;;;4.35;;
43801;SDS011;29429;51.074;13.764;2023-02-28T03:02:36;9.73;;;5.97;;
43801;SDS011;29429;51.074;13.764;2023-02-28T03:05:07;13.25;;;5.32;;
43801;SDS011;29429;51.074;13.764;2023-02-28T03:07:43;10.25;;;5.30;;
43801;SDS011;29429;51.074;13.764;2023-02-28T03:10:31;10.75;;;5.28;;
43801;SDS011;29429;51.074;13.764;2023-02-28T03:28:13;13.88;;;6.82;;
43801;SDS011;29429;51.074;13.764;2023-02-28T03:33:51;9.15;;;5.20;;
43801;SDS011;29429;51.074;13.764;2023-02-28T03:36:57;10.10;;;5.03;;
43801;SDS011;29429;51.074;13.764;2023-02-28T03:39:36;10.10;;;4.95;;
43801;SDS011;29429;51.074;13.764;2023-02-28T03:42:14;10.10;;;5.22;;
43801;SDS011;29429;51.074;13.764;2023-02-28T03:44:50;10.13;;;5.50;;
43801;SDS011;29429;51.074;13.764;2023-02-28T03:50:08;12.30;;;6.38;;
43801;SDS011;29429;51.074;13.764;2023-02-28T03:52:58;8.45;;;5.05;;
43801;SDS011;29429;51.074;13.764;2023-02-28T03:55:34;10.45;;;5.35;;
43801;SDS011;29429;51.074;13.764;2023-02-28T03:58:22;11.50;;;5.85;;
43801;SDS011;29429;51.074;13.764;2023-02-28T04:01:12;13.68;;;6.97;;
43801;SDS011;29429;51.074;13.764;2023-02-28T04:04:00;12.50;;;6.03;;
43801;SDS011;29429;51.074;13.764;2023-02-28T04:06:29;11.07;;;6.72;;
43801;SDS011;29429;51.074;13.764;2023-02-28T04:08:59;15.50;;;6.70;;
43801;SDS011;29429;51.074;13.764;2023-02-28T04:11:31;15.88;;;8.18;;
43801;SDS011;29429;51.074;13.764;2023-02-28T04:14:08;15.95;;;7.90;;
43801;SDS011;29429;51.074;13.764;2023-02-28T04:16:39;14.82;;;7.68;;
43801;SDS011;29429;51.074;13.764;2023-02-28T04:19:08;17.05;;;8.20;;
43801;SDS011;29429;51.074;13.764;2023-02-28T04:21:41;13.38;;;7.38;;
43801;SDS011;29429;51.074;13.764;2023-02-28T04:24:21;16.88;;;8.68;;
43801;SDS011;29429;51.074;13.764;2023-02-28T04:26:53;13.48;;;8.02;;
43801;SDS011;29429;51.074;13.764;2023-02-28T04:29:24;12.90;;;7.85;;
43801;SDS011;29429;51.074;13.764;2023-02-28T04:31:54;16.33;;;8.35;;
43801;SDS011;29429;51.074;13.764;2023-02-28T04:34:25;15.85;;;8.35;;
43801;SDS011;29429;51.074;13.764;2023-02-28T04:36:53;15.27;;;7.45;;
43801;SDS011;29429;51.074;13.764;2023-02-28T04:39:38;16.35;;;7.72;;
43801;SDS011;29429;51.074;13.764;2023-02-28T04:42:06;13.73;;;7.05;;
43801;SDS011;29429;51.074;13.764;2023-02-28T04:44:33;21.83;;;8.90;;
43801;SDS011;29429;51.074;13.764;2023-02-28T04:47:00;13.65;;;7.93;;
43801;SDS011;29429;51.074;13.764;2023-02-28T04:49:27;12.70;;;7.53;;
43801;SDS011;29429;51.074;13.764;2023-02-28T04:51:54;17.65;;;7.90;;
43801;SDS011;29429;51.074;13.764;2023-02-28T04:54:21;15.05;;;7.78;;
43801;SDS011;29429;51.074;13.764;2023-02-28T04:56:48;15.27;;;8.63;;
43801;SDS011;29429;51.074;13.764;2023-02-28T04:59:16;17.42;;;9.32;;
43801;SDS011;29429;51.074;13.764;2023-02-28T05:01:47;15.80;;;8.60;;
43801;SDS011;29429;51.074;13.764;2023-02-28T05:04:15;17.08;;;8.57;;
43801;SDS011;29429;51.074;13.764;2023-02-28T05:06:43;15.25;;;8.48;;
43801;SDS011;29429;51.074;13.764;2023-02-28T05:09:10;15.88;;;8.88;;
43801;SDS011;29429;51.074;13.764;2023-02-28T05:11:38;17.33;;;8.65;;
43801;SDS011;29429;51.074;13.764;2023-02-28T05:14:14;16.60;;;8.52;;
43801;SDS011;29429;51.074;13.764;2023-02-28T05:16:42;17.75;;;10.07;;
43801;SDS011;29429;51.074;13.764;2023-02-28T05:19:09;15.73;;;8.05;;
43801;SDS011;29429;51.074;13.764;2023-02-28T05:21:38;15.93;;;8.15;;
43801;SDS011;29429;51.074;13.764;2023-02-28T05:24:09;18.63;;;9.13;;
43801;SDS011;29429;51.074;13.764;2023-02-28T05:26:39;15.85;;;8.25;;
43801;SDS011;29429;51.074;13.764;2023-02-28T05:29:09;15.40;;;9.70;;
43801;SDS011;29429;51.074;13.764;2023-02-28T05:31:36;16.35;;;9.38;;
43801;SDS011;29429;51.074;13.764;2023-02-28T05:34:04;14.98;;;9.00;;
43801;SDS011;29429;51.074;13.764;2023-02-28T05:36:31;16.33;;;8.90;;
43801;SDS011;29429;51.074;13.764;2023-02-28T05:38:58;20.05;;;10.38;;
43801;SDS011;29429;51.074;13.764;2023-02-28T05:41:25;22.15;;;10.60;;
43801;SDS011;29429;51.074;13.764;2023-02-28T05:43:53;19.25;;;9.48;;
43801;SDS011;29429;51.074;13.764;2023-02-28T05:46:21;19.40;;;9.55;;
43801;SDS011;29429;51.074;13.764;2023-02-28T05:48:48;18.55;;;10.35;;
43801;SDS011;29429;51.074;13.764;2023-02-28T05:51:17;20.55;;;10.77;;
43801;SDS011;29429;51.074;13.764;2023-02-28T05:53:44;18.98;;;10.57;;
43801;SDS011;29429;51.074;13.764;2023-02-28T05:56:11;19.90;;;10.70;;
43801;SDS011;29429;51.074;13.764;2023-02-28T05:58:38;20.25;;;10.75;;
43801;SDS011;29429;51.074;13.764;2023-02-28T06:03:50;19.20;;;10.57;;
43801;SDS011;29429;51.074;13.764;2023-02-28T06:06:17;21.90;;;10.95;;
43801;SDS011;29429;51.074;13.764;2023-02-28T06:08:44;20.83;;;10.80;;
43801;SDS011;29429;51.074;13.764;2023-02-28T06:11:11;18.30;;;10.93;;
43801;SDS011;29429;51.074;13.764;2023-02-28T06:13:39;22.65;;;12.05;;
43801;SDS011;29429;51.074;13.764;2023-02-28T06:16:06;22.00;;;11.10;;
43801;SDS011;29429;51.074;13.764;2023-02-28T06:18:35;20.88;;;10.90;;
43801;SDS011;29429;51.074;13.764;2023-02-28T06:21:02;18.27;;;10.32;;
43801;SDS011;29429;51.074;13.764;2023-02-28T06:23:30;17.67;;;10.35;;
43801;SDS011;29429;51.074;13.764;2023-02-28T06:25:57;19.92;;;10.88;;
43801;SDS011;29429;51.074;13.764;2023-02-28T06:28:25;21.45;;;11.32;;
43801;SDS011;29429;51.074;13.764;2023-02-28T06:30:52;22.77;;;11.88;;
43801;SDS011;29429;51.074;13.764;2023-02-28T06:33:19;20.60;;;11.05;;
43801;SDS011;29429;51.074;13.764;2023-02-28T06:35:47;21.63;;;10.43;;
43801;SDS011;29429;51.074;13.764;2023-02-28T06:38:17;20.75;;;10.88;;
43801;SDS011;29429;51.074;13.764;2023-02-28T06:40:45;22.48;;;11.75;;
43801;SDS011;29429;51.074;13.764;2023-02-28T06:43:21;21.77;;;10.55;;
43801;SDS011;29429;51.074;13.764;2023-02-28T06:45:48;22.40;;;11.35;;
43801;SDS011;29429;51.074;13.764;2023-02-28T06:48:16;23.73;;;11.63;;
43801;SDS011;29429;51.074;13.764;2023-02-28T06:50:44;17.80;;;9.50;;
43801;SDS011;29429;51.074;13.764;2023-02-28T06:53:11;20.83;;;10.43;;
43801;SDS011;29429;51.074;13.764;2023-02-28T06:56:10;21.65;;;11.05;;
43801;SDS011;29429;51.074;13.764;2023-02-28T06:58:54;20.27;;;10.68;;
43801;SDS011;29429;51.074;13.764;2023-02-28T07:04:45;20.80;;;11.05;;
43801;SDS011;29429;51.074;13.764;2023-02-28T07:07:16;18.25;;;10.63;;
43801;SDS011;29429;51.074;13.764;2023-02-28T07:09:54;17.45;;;10.20;;
43801;SDS011;29429;51.074;13.764;2023-02-28T07:12:23;23.50;;;11.13;;
43801;SDS011;29429;51.074;13.764;2023-02-28T07:14:56;19.88;;;11.60;;
43801;SDS011;29429;51.074;13.764;2023-02-28T07:17:24;17.25;;;10.43;;
43801;SDS011;29429;51.074;13.764;2023-02-28T07:19:55;30.98;;;17.35;;
43801;SDS011;29429;51.074;13.764;2023-02-28T07:22:22;23.20;;;13.65;;
43801;SDS011;29429;51.074;13.764;2023-02-28T07:25:07;18.35;;;10.95;;
43801;SDS011;29429;51.074;13.764;2023-02-28T07:27:39;19.48;;;11.30;;
43801;SDS011;29429;51.074;13.764;2023-02-28T07:30:42;24.20;;;12.05;;
43801;SDS011;29429;51.074;13.764;2023-02-28T07:33:13;18.85;;;10.55;;
43801;SDS011;29429;51.074;13.764;2023-02-28T07:35:59;21.23;;;11.40;;
43801;SDS011;29429;51.074;13.764;2023-02-28T07:38:54;17.75;;;9.98;;
43801;SDS011;29429;51.074;13.764;2023-02-28T07:41:51;21.50;;;9.93;;
43801;SDS011;29429;51.074;13.764;2023-02-28T07:44:50;16.95;;;9.10;;
43801;SDS011;29429;51.074;13.764;2023-02-28T07:47:34;17.67;;;9.95;;
43801;SDS011;29429;51.074;13.764;2023-02-28T07:50:14;19.60;;;9.68;;
43801;SDS011;29429;51.074;13.764;2023-02-28T07:53:52;16.67;;;8.98;;
43801;SDS011;29429;51.074;13.764;2023-02-28T07:57:05;22.80;;;10.18;;
43801;SDS011;29429;51.074;13.764;2023-02-28T08:02:59;14.20;;;8.20;;
43801;SDS011;29429;51.074;13.764;2023-02-28T08:05:29;19.38;;;9.57;;
43801;SDS011;29429;51.074;13.764;2023-02-28T08:08:11;16.67;;;9.18;;
43801;SDS011;29429;51.074;13.764;2023-02-28T08:10:45;16.42;;;9.00;;
43801;SDS011;29429;51.074;13.764;2023-02-28T08:13:22;15.18;;;9.23;;
43801;SDS011;29429;51.074;13.764;2023-02-28T08:15:50;14.88;;;8.32;;
43801;SDS011;29429;51.074;13.764;2023-02-28T08:18:20;19.23;;;9.00;;
43801;SDS011;29429;51.074;13.764;2023-02-28T08:20:52;15.80;;;8.05;;
43801;SDS011;29429;51.074;13.764;2023-02-28T08:23:24;17.58;;;8.95;;
43801;SDS011;29429;51.074;13.764;2023-02-28T08:26:16;18.08;;;8.77;;
43801;SDS011;29429;51.074;13.764;2023-02-28T08:28:45;15.63;;;8.70;;
43801;SDS011;29429;51.074;13.764;2023-02-28T08:31:13;13.32;;;8.15;;
43801;SDS011;29429;51.074;13.764;2023-02-28T08:33:48;17.02;;;9.85;;
43801;SDS011;29429;51.074;13.764;2023-02-28T08:36:26;18.95;;;8.23;;
43801;SDS011;29429;51.074;13.764;2023-02-28T08:38:56;15.95;;;8.90;;
43801;SDS011;29429;51.074;13.764;2023-02-28T08:41:30;14.35;;;8.27;;
43801;SDS011;29429;51.074;13.764;2023-02-28T08:43:59;21.05;;;8.77;;
43801;SDS011;29429;51.074;13.764;2023-02-28T08:46:45;16.15;;;8.98;;
43801;SDS011;29429;51.074;13.764;2023-02-28T08:49:13;15.68;;;8.88;;
43801;SDS011;29429;51.074;13.764;2023-02-28T08:51:48;13.32;;;8.68;;
43801;SDS011;29429;51.074;13.764;2023-02-28T08:55:03;13.75;;;8.98;;
43801;SDS011;29429;51.074;13.764;2023-02-28T08:57:41;13.10;;;7.93;;
43801;SDS011;29429;51.074;13.764;2023-02-28T09:00:22;13.90;;;8.60;;
43801;SDS011;29429;51.074;13.764;2023-02-28T09:03:35;16.38;;;8.27;;
43801;SDS011;29429;51.074;13.764;2023-02-28T09:06:36;14.05;;;7.65;;
43801;SDS011;29429;51.074;13.764;2023-02-28T09:09:07;13.82;;;7.47;;
43801;SDS011;29429;51.074;13.764;2023-02-28T09:11:36;13.90;;;7.18;;
43801;SDS011;29429;51.074;13.764;2023-02-28T09:14:03;13.07;;;7.50;;
43801;SDS011;29429;51.074;13.764;2023-02-28T09:16:31;14.45;;;6.88;;
43801;SDS011;29429;51.074;13.764;2023-02-28T09:19:00;13.32;;;7.60;;
43801;SDS011;29429;51.074;13.764;2023-02-28T09:21:27;13.48;;;7.32;;
43801;SDS011;29429;51.074;13.764;2023-02-28T09:23:55;14.65;;;7.90;;
43801;SDS011;29429;51.074;13.764;2023-02-28T09:26:26;10.88;;;6.25;;
43801;SDS011;29429;51.074;13.764;2023-02-28T09:29:16;15.00;;;6.65;;
43801;SDS011;29429;51.074;13.764;2023-02-28T09:31:55;12.40;;;6.45;;
43801;SDS011;29429;51.074;13.764;2023-02-28T09:34:45;9.93;;;6.03;;
43801;SDS011;29429;51.074;13.764;2023-02-28T09:37:13;11.40;;;6.20;;
43801;SDS011;29429;51.074;13.764;2023-02-28T09:39:59;12.02;;;6.55;;
43801;SDS011;29429;51.074;13.764;2023-02-28T09:42:30;11.18;;;6.35;;
43801;SDS011;29429;51.074;13.764;2023-02-28T09:45:00;11.77;;;6.18;;
43801;SDS011;29429;51.074;13.764;2023-02-28T09:47:38;10.98;;;6.28;;
43801;SDS011;29429;51.074;13.764;2023-02-28T09:52:53;12.27;;;6.50;;
43801;SDS011;29429;51.074;13.764;2023-02-28T09:55:25;9.95;;;5.07;;
43801;SDS011;29429;51.074;13.764;2023-02-28T10:10:47;12.77;;;6.97;;
43801;SDS011;29429;51.074;13.764;2023-02-28T10:16:16;13.60;;;7.05;;
43801;SDS011;29429;51.074;13.764;2023-02-28T10:19:13;15.18;;;6.93;;
43801;SDS011;29429;51.074;13.764;2023-02-28T10:24:54;12.13;;;7.05;;
43801;SDS011;29429;51.074;13.764;2023-02-28T10:27:34;14.65;;;7.90;;
43801;SDS011;29429;51.074;13.764;2023-02-28T10:30:02;12.85;;;7.50;;
43801;SDS011;29429;51.074;13.764;2023-02-28T10:32:31;12.20;;;7.07;;
43801;SDS011;29429;51.074;13.764;2023-02-28T10:35:18;14.25;;;7.07;;
43801;SDS011;29429;51.074;13.764;2023-02-28T10:37:48;11.85;;;7.22;;
43801;SDS011;29429;51.074;13.764;2023-02-28T10:45:30;13.73;;;7.10;;
43801;SDS011;29429;51.074;13.764;2023-02-28T10:48:25;13.60;;;7.07;;
43801;SDS011;29429;51.074;13.764;2023-02-28T10:51:12;14.55;;;7.72;;
43801;SDS011;29429;51.074;13.764;2023-02-28T10:53:46;12.52;;;7.15;;
43801;SDS011;29429;51.074;13.764;2023-02-28T10:56:28;12.95;;;7.22;;
43801;SDS011;29429;51.074;13.764;2023-02-28T10:59:02;12.43;;;7.55;;
43801;SDS011;29429;51.074;13.764;2023-02-28T11:01:49;12.15;;;7.95;;
43801;SDS011;29429;51.074;13.764;2023-02-28T11:06:59;16.25;;;7.88;;
43801;SDS011;29429;51.074;13.764;2023-02-28T11:12:17;15.55;;;8.23;;
43801;SDS011;29429;51.074;13.764;2023-02-28T11:14:50;17.53;;;7.90;;
43801;SDS011;29429;51.074;13.764;2023-02-28T11:17:33;13.63;;;7.93;;
43801;SDS011;29429;51.074;13.764;2023-02-28T11:20:06;15.55;;;7.80;;
43801;SDS011;29429;51.074;13.764;2023-02-28T11:22:46;16.73;;;8.43;;
43801;SDS011;29429;51.074;13.764;2023-02-28T11:25:33;12.52;;;7.30;;
43801;SDS011;29429;51.074;13.764;2023-02-28T11:28:23;13.48;;;7.60;;
43801;SDS011;29429;51.074;13.764;2023-02-28T11:31:04;13.02;;;7.50;;
43801;SDS011;29429;51.074;13.764;2023-02-28T11:33:50;13.88;;;7.57;;
43801;SDS011;29429;51.074;13.764;2023-02-28T11:36:24;11.75;;;6.75;;
43801;SDS011;29429;51.074;13.764;2023-02-28T11:38:55;13.00;;;7.28;;
43801;SDS011;29429;51.074;13.764;2023-02-28T11:44:29;13.00;;;8.30;;
43801;SDS011;29429;51.074;13.764;2023-02-28T11:47:37;13.30;;;7.88;;
43801;SDS011;29429;51.074;13.764;2023-02-28T11:53:14;12.68;;;8.38;;
43801;SDS011;29429;51.074;13.764;2023-02-28T11:56:00;14.32;;;7.90;;
43801;SDS011;29429;51.074;13.764;2023-02-28T12:02:06;17.90;;;8.82;;
43801;SDS011;29429;51.074;13.764;2023-02-28T12:11:27;13.05;;;8.13;;
43801;SDS011;29429;51.074;13.764;2023-02-28T12:32:26;14.38;;;8.20;;
43801;SDS011;29429;51.074;13.764;2023-02-28T12:37:37;15.52;;;8.75;;
43801;SDS011;29429;51.074;13.764;2023-02-28T12:40:18;14.90;;;7.78;;
43801;SDS011;29429;51.074;13.764;2023-02-28T12:42:50;16.25;;;8.55;;
43801;SDS011;29429;51.074;13.764;2023-02-28T12:45:31;15.57;;;8.65;;
43801;SDS011;29429;51.074;13.764;2023-02-28T12:48:15;13.77;;;7.47;;
43801;SDS011;29429;51.074;13.764;2023-02-28T12:50:51;16.67;;;9.98;;
43801;SDS011;29429;51.074;13.764;2023-02-28T12:53:29;15.55;;;8.93;;
43801;SDS011;29429;51.074;13.764;2023-02-28T12:56:17;15.40;;;8.98;;
43801;SDS011;29429;51.074;13.764;2023-02-28T12:58:56;15.60;;;9.05;;
43801;SDS011;29429;51.074;13.764;2023-02-28T13:01:36;14.48;;;8.52;;
43801;SDS011;29429;51.074;13.764;2023-02-28T13:10:04;16.55;;;9.52;;
43801;SDS011;29429;51.074;13.764;2023-02-28T13:12:34;17.50;;;9.90;;
43801;SDS011;29429;51.074;13.764;2023-02-28T13:17:52;15.07;;;8.35;;
43801;SDS011;29429;51.074;13.764;2023-02-28T13:20:34;13.80;;;8.68;;
43801;SDS011;29429;51.074;13.764;2023-02-28T13:23:03;14.57;;;8.50;;
43801;SDS011;29429;51.074;13.764;2023-02-28T13:26:13;18.35;;;9.85;;
43801;SDS011;29429;51.074;13.764;2023-02-28T13:29:25;17.35;;;9.20;;
43801;SDS011;29429;51.074;13.764;2023-02-28T13:39:52;20.63;;;10.20;;
43801;SDS011;29429;51.074;13.764;2023-02-28T13:42:35;17.60;;;9.48;;
43801;SDS011;29429;51.074;13.764;2023-02-28T13:47:53;18.17;;;10.23;;
43801;SDS011;29429;51.074;13.764;2023-02-28T13:50:38;18.60;;;10.18;;
43801;SDS011;29429;51.074;13.764;2023-02-28T13:55:53;16.65;;;9.48;;
43801;SDS011;29429;51.074;13.764;2023-02-28T14:07:41;14.30;;;8.80;;
43801;SDS011;29429;51.074;13.764;2023-02-28T14:10:27;15.77;;;9.13;;
43801;SDS011;29429;51.074;13.764;2023-02-28T14:13:00;14.55;;;9.07;;
43801;SDS011;29429;51.074;13.764;2023-02-28T14:16:04;12.73;;;9.40;;
43801;SDS011;29429;51.074;13.764;2023-02-28T14:18:34;16.85;;;9.85;;
43801;SDS011;29429;51.074;13.764;2023-02-28T14:38:36;18.45;;;9.68;;
43801;SDS011;29429;51.074;13.764;2023-02-28T14:41:21;16.00;;;10.20;;
43801;SDS011;29429;51.074;13.764;2023-02-28T14:43:56;14.55;;;9.02;;
43801;SDS011;29429;51.074;13.764;2023-02-28T14:46:35;19.13;;;10.38;;
43801;SDS011;29429;51.074;13.764;2023-02-28T14:49:06;18.33;;;10.73;;
43801;SDS011;29429;51.074;13.764;2023-02-28T14:51:42;14.98;;;9.15;;
43801;SDS011;29429;51.074;13.764;2023-02-28T14:54:13;14.63;;;9.20;;
43801;SDS011;29429;51.074;13.764;2023-02-28T14:56:48;18.35;;;10.50;;
43801;SDS011;29429;51.074;13.764;2023-02-28T14:59:23;18.17;;;9.45;;
43801;SDS011;29429;51.074;13.764;2023-02-28T15:04:41;17.58;;;10.23;;
43801;SDS011;29429;51.074;13.764;2023-02-28T15:07:09;16.80;;;10.52;;
43801;SDS011;29429;51.074;13.764;2023-02-28T15:09:40;17.95;;;10.30;;
43801;SDS011;29429;51.074;13.764;2023-02-28T15:12:07;18.42;;;9.95;;
43801;SDS011;29429;51.074;13.764;2023-02-28T15:14:42;16.27;;;9.63;;
43801;SDS011;29429;51.074;13.764;2023-02-28T15:17:19;16.85;;;9.85;;
43801;SDS011;29429;51.074;13.764;2023-02-28T15:19:51;26.50;;;13.73;;
43801;SDS011;29429;51.074;13.764;2023-02-28T15:22:26;20.80;;;11.75;;
43801;SDS011;29429;51.074;13.764;2023-02-28T15:25:02;18.38;;;10.05;;
43801;SDS011;29429;51.074;13.764;2023-02-28T15:27:32;18.83;;;9.98;;
43801;SDS011;29429;51.074;13.764;2023-02-28T15:30:05;17.67;;;10.77;;
43801;SDS011;29429;51.074;13.764;2023-02-28T15:32:41;17.52;;;10.38;;
43801;SDS011;29429;51.074;13.764;2023-02-28T15:35:20;14.50;;;10.07;;
43801;SDS011;29429;51.074;13.764;2023-02-28T15:40:57;16.20;;;9.88;;
43801;SDS011;29429;51.074;13.764;2023-02-28T15:43:26;17.85;;;9.30;;
43801;SDS011;29429;51.074;13.764;2023-02-28T15:46:02;18.70;;;11.88;;
43801;SDS011;29429;51.074;13.764;2023-02-28T15:48:43;18.73;;;10.27;;
43801;SDS011;29429;51.074;13.764;2023-02-28T15:51:17;16.48;;;9.32;;
43801;SDS011;29429;51.074;13.764;2023-02-28T15:53:51;16.85;;;9.40;;
43801;SDS011;29429;51.074;13.764;2023-02-28T15:56:35;17.80;;;10.20;;
43801;SDS011;29429;51.074;13.764;2023-02-28T15:59:18;16.38;;;9.65;;
43801;SDS011;29429;51.074;13.764;2023-02-28T16:02:12;17.45;;;10.32;;
43801;SDS011;29429;51.074;13.764;2023-02-28T16:05:00;19.80;;;11.27;;
43801;SDS011;29429;51.074;13.764;2023-02-28T16:07:38;19.50;;;10.10;;
43801;SDS011;29429;51.074;13.764;2023-02-28T16:10:09;23.05;;;11.05;;
43801;SDS011;29429;51.074;13.764;2023-02-28T16:12:40;16.30;;;10.00;;
43801;SDS011;29429;51.074;13.764;2023-02-28T16:15:09;16.55;;;10.07;;
43801;SDS011;29429;51.074;13.764;2023-02-28T16:17:49;15.48;;;9.05;;
43801;SDS011;29429;51.074;13.764;2023-02-28T16:20:17;17.02;;;10.02;;
43801;SDS011;29429;51.074;13.764;2023-02-28T16:22:51;15.15;;;9.05;;
43801;SDS011;29429;51.074;13.764;2023-02-28T16:25:19;15.25;;;9.48;;
43801;SDS011;29429;51.074;13.764;2023-02-28T16:27:52;20.45;;;11.05;;
43801;SDS011;29429;51.074;13.764;2023-02-28T16:30:24;16.65;;;9.85;;
43801;SDS011;29429;51.074;13.764;2023-02-28T16:32:57;19.92;;;9.95;;
43801;SDS011;29429;51.074;13.764;2023-02-28T16:35:25;16.83;;;9.30;;
43801;SDS011;29429;51.074;13.764;2023-02-28T16:37:52;17.90;;;10.00;;
43801;SDS011;29429;51.074;13.764;2023-02-28T16:40:23;15.77;;;8.23;;
43801;SDS011;29429;51.074;13.764;2023-02-28T16:42:53;13.32;;;8.18;;
43801;SDS011;29429;51.074;13.764;2023-02-28T16:45:27;15.75;;;8.43;;
43801;SDS011;29429;51.074;13.764;2023-02-28T16:47:56;15.02;;;8.48;;
43801;SDS011;29429;51.074;13.764;2023-02-28T16:52:53;14.02;;;8.15;;
43801;SDS011;29429;51.074;13.764;2023-02-28T16:55:21;15.02;;;8.82;;
43801;SDS011;29429;51.074;13.764;2023-02-28T16:57:55;20.23;;;10.43;;
43801;SDS011;29429;51.074;13.764;2023-02-28T17:00:25;22.50;;;11.13;;
43801;SDS011;29429;51.074;13.764;2023-02-28T17:02:54;22.20;;;9.60;;
43801;SDS011;29429;51.074;13.764;2023-02-28T17:05:22;22.95;;;11.63;;
43801;SDS011;29429;51.074;13.764;2023-02-28T17:07:50;20.00;;;10.70;;
43801;SDS011;29429;51.074;13.764;2023-02-28T17:10:18;18.08;;;9.77;;
43801;SDS011;29429;51.074;13.764;2023-02-28T17:12:48;17.25;;;9.00;;
43801;SDS011;29429;51.074;13.764;2023-02-28T17:15:21;16.10;;;10.15;;
43801;SDS011;29429;51.074;13.764;2023-02-28T17:17:48;19.58;;;9.23;;
43801;SDS011;29429;51.074;13.764;2023-02-28T17:20:20;16.63;;;9.27;;
43801;SDS011;29429;51.074;13.764;2023-02-28T17:22:52;20.83;;;9.18;;
43801;SDS011;29429;51.074;13.764;2023-02-28T17:25:20;19.17;;;8.73;;
43801;SDS011;29429;51.074;13.764;2023-02-28T17:27:49;20.67;;;9.15;;
43801;SDS011;29429;51.074;13.764;2023-02-28T17:30:18;15.50;;;8.75;;
43801;SDS011;29429;51.074;13.764;2023-02-28T17:32:49;18.65;;;9.32;;
43801;SDS011;29429;51.074;13.764;2023-02-28T17:35:16;15.10;;;8.73;;
43801;SDS011;29429;51.074;13.764;2023-02-28T17:37:44;19.92;;;9.77;;
43801;SDS011;29429;51.074;13.764;2023-02-28T17:40:15;16.88;;;9.48;;
43801;SDS011;29429;51.074;13.764;2023-02-28T17:42:46;17.73;;;8.65;;
43801;SDS011;29429;51.074;13.764;2023-02-28T17:45:14;14.10;;;8.18;;
43801;SDS011;29429;51.074;13.764;2023-02-28T17:47:43;15.50;;;8.85;;
43801;SDS011;29429;51.074;13.764;2023-02-28T17:50:15;17.55;;;9.70;;
43801;SDS011;29429;51.074;13.764;2023-02-28T17:52:45;20.23;;;10.27;;
43801;SDS011;29429;51.074;13.764;2023-02-28T17:55:12;18.15;;;9.43;;
43801;SDS011;29429;51.074;13.764;2023-02-28T17:57:40;16.23;;;8.80;;